createdAt,value
2019-02-21T00:02:22.416Z,28.98
2019-02-21T00:04:51.891Z,28.37
2019-02-21T00:07:21.385Z,31.10
2019-02-21T00:09:50.968Z,26.53
2019-02-21T00:15:28.296Z,29.40
2019-02-21T00:17:57.865Z,21.33
2019-02-21T00:20:27.407Z,24.77
2019-02-21T00:22:56.900Z,19.77
2019-02-21T00:25:26.403Z,27.50
2019-02-21T00:27:55.974Z,29.20
2019-02-21T00:30:34.871Z,19.40
2019-02-21T00:33:15.752Z,26.70
2019-02-21T00:35:45.431Z,29.63
2019-02-21T00:38:14.985Z,27.83
2019-02-21T00:40:44.542Z,28.33
2019-02-21T00:43:14.102Z,28.87
2019-02-21T00:45:43.662Z,25.17
2019-02-21T00:48:13.153Z,26.23
2019-02-21T00:50:42.643Z,30.13
2019-02-21T00:53:12.113Z,26.50
2019-02-21T00:55:53.906Z,28.80
2019-02-21T00:58:23.400Z,31.13
2019-02-21T01:00:52.891Z,28.63
2019-02-21T01:03:22.374Z,28.43
2019-02-21T01:05:51.883Z,29.00
2019-02-21T01:08:21.581Z,26.20
2019-02-21T01:10:51.157Z,31.17
2019-02-21T01:13:21.005Z,25.25
2019-02-21T01:15:50.979Z,31.35
2019-02-21T01:18:20.808Z,24.10
2019-02-21T01:20:50.946Z,26.60
2019-02-21T01:23:20.964Z,32.15
2019-02-21T01:25:51.053Z,23.45
2019-02-21T01:28:21.037Z,26.60
2019-02-21T01:30:57.043Z,26.57
2019-02-21T01:33:41.312Z,34.80
2019-02-21T01:36:10.871Z,25.72
2019-02-21T01:38:40.368Z,26.00
2019-02-21T01:41:09.929Z,26.85
2019-02-21T01:43:39.567Z,35.93
2019-02-21T01:46:09.088Z,30.13
2019-02-21T01:51:27.414Z,25.93
2019-02-21T01:53:56.971Z,28.63
2019-02-21T01:56:26.470Z,25.23
2019-02-21T01:58:55.956Z,27.94
2019-02-21T02:01:25.451Z,23.43
2019-02-21T02:03:54.979Z,23.52
2019-02-21T02:06:24.569Z,27.57
2019-02-21T02:08:54.115Z,23.10
2019-02-21T02:11:23.607Z,27.13
2019-02-21T02:13:53.495Z,21.17
2019-02-21T02:16:35.110Z,29.60
2019-02-21T02:19:04.589Z,23.40
2019-02-21T02:21:34.081Z,34.98
2019-02-21T02:24:03.786Z,31.30
2019-02-21T02:26:33.279Z,21.33
2019-02-21T02:29:02.777Z,29.10
2019-02-21T02:31:51.312Z,27.17
2019-02-21T02:34:21.234Z,26.35
2019-02-21T02:36:52.373Z,29.03
2019-02-21T02:39:21.852Z,26.73
2019-02-21T02:41:51.357Z,27.47
2019-02-21T02:44:21.291Z,23.38
2019-02-21T02:46:51.910Z,25.30
2019-02-21T02:49:21.542Z,22.17
2019-02-21T02:51:51.584Z,26.02
2019-02-21T02:54:22.710Z,30.80
2019-02-21T02:56:52.238Z,25.23
2019-02-21T02:59:21.948Z,25.17
2019-02-21T03:01:51.414Z,20.97
2019-02-21T03:04:21.480Z,29.70
2019-02-21T03:06:51.486Z,27.77
2019-02-21T03:09:21.442Z,25.15
2019-02-21T03:11:52.068Z,27.48
2019-02-21T03:14:41.683Z,25.47
2019-02-21T03:17:11.217Z,23.00
2019-02-21T03:19:40.697Z,34.03
2019-02-21T03:22:10.192Z,24.83
2019-02-21T03:24:39.790Z,26.60
2019-02-21T03:27:21.923Z,23.70
2019-02-21T03:29:51.604Z,29.53
2019-02-21T03:32:21.455Z,19.45
2019-02-21T03:35:10.950Z,22.42
2019-02-21T03:37:59.794Z,24.50
2019-02-21T03:40:29.275Z,22.42
2019-02-21T03:42:58.759Z,25.93
2019-02-21T03:45:28.346Z,23.23
2019-02-21T03:47:57.932Z,19.83
2019-02-21T03:50:46.771Z,26.97
2019-02-21T03:53:16.325Z,24.07
2019-02-21T03:55:45.913Z,21.03
2019-02-21T03:58:15.452Z,24.85
2019-02-21T04:00:45.015Z,25.10
2019-02-21T04:03:14.529Z,19.73
2019-02-21T04:05:44.083Z,21.17
2019-02-21T04:08:13.549Z,20.70
2019-02-21T04:10:43.106Z,20.87
2019-02-21T04:13:18.623Z,19.30
2019-02-21T04:15:48.066Z,28.53
2019-02-21T04:18:17.675Z,20.50
2019-02-21T04:20:47.206Z,20.57
2019-02-21T04:26:05.288Z,18.93
2019-02-21T04:28:34.806Z,23.50
2019-02-21T04:31:04.304Z,18.70
2019-02-21T04:33:34.477Z,23.73
2019-02-21T04:36:10.284Z,19.13
2019-02-21T04:38:39.780Z,24.47
2019-02-21T04:41:28.678Z,19.73
2019-02-21T04:43:58.193Z,26.00
2019-02-21T04:46:27.768Z,29.50
2019-02-21T04:48:57.376Z,29.33
2019-02-21T04:51:26.949Z,19.13
2019-02-21T04:53:58.134Z,19.35
2019-02-21T04:56:27.718Z,31.03
2019-02-21T04:58:57.234Z,24.12
2019-02-21T05:01:26.775Z,22.73
2019-02-21T05:03:56.281Z,20.90
2019-02-21T05:06:25.911Z,20.57
2019-02-21T05:09:01.544Z,28.52
2019-02-21T05:11:32.665Z,22.30
2019-02-21T05:17:15.987Z,21.73
2019-02-21T05:19:45.528Z,16.00
2019-02-21T05:22:15.094Z,20.27
2019-02-21T05:24:44.604Z,22.27
2019-02-21T05:33:18.863Z,18.73
2019-02-21T05:36:07.402Z,24.57
2019-02-21T05:38:55.974Z,20.73
2019-02-21T05:41:44.515Z,23.13
2019-02-21T05:44:20.560Z,26.15
2019-02-21T05:46:54.613Z,25.17
2019-02-21T05:49:43.151Z,21.48
2019-02-21T05:52:31.678Z,21.27
2019-02-21T05:55:20.187Z,18.30
2019-02-21T05:57:58.072Z,24.27
2019-02-21T06:00:46.591Z,24.10
2019-02-21T06:03:36.130Z,25.23
2019-02-21T06:06:44.553Z,22.10
2019-02-21T06:09:33.098Z,18.23
2019-02-21T06:12:32.809Z,17.67
2019-02-21T06:15:18.429Z,25.20
2019-02-21T06:18:07.079Z,21.00
2019-02-21T06:20:57.661Z,18.73
2019-02-21T06:23:51.675Z,23.40
2019-02-21T06:26:40.235Z,21.50
2019-02-21T06:29:14.641Z,25.47
2019-02-21T06:31:44.221Z,18.30
2019-02-21T06:34:13.847Z,25.77
2019-02-21T06:37:02.764Z,22.13
2019-02-21T06:39:32.358Z,18.07
2019-02-21T06:45:04.316Z,16.80
2019-02-21T06:47:33.900Z,19.83
2019-02-21T06:50:03.652Z,20.97
2019-02-21T06:52:33.207Z,16.57
2019-02-21T06:55:21.944Z,19.90
2019-02-21T06:58:10.548Z,18.70
2019-02-21T07:00:40.069Z,22.30
2019-02-21T07:03:29.154Z,25.07
2019-02-21T07:06:19.286Z,17.70
2019-02-21T07:08:48.832Z,19.87
2019-02-21T07:11:18.650Z,22.47
2019-02-21T07:13:48.183Z,17.50
2019-02-21T07:16:17.742Z,18.13
2019-02-21T07:18:47.270Z,18.80
2019-02-21T07:21:16.834Z,22.93
2019-02-21T07:23:46.628Z,21.47
2019-02-21T07:26:18.433Z,20.50
2019-02-21T07:28:47.918Z,23.73
2019-02-21T07:31:28.099Z,20.60
2019-02-21T07:33:54.541Z,18.85
2019-02-21T07:39:35.548Z,15.83
2019-02-21T07:42:03.484Z,20.43
2019-02-21T07:44:33.198Z,20.77
2019-02-21T07:47:23.340Z,17.00
2019-02-21T07:49:52.891Z,21.60
2019-02-21T07:52:22.441Z,18.13
2019-02-21T07:55:01.289Z,17.77
2019-02-21T07:57:42.262Z,20.20
2019-02-21T08:00:11.852Z,20.15
2019-02-21T08:02:41.341Z,19.63
2019-02-21T08:05:10.985Z,16.97
2019-02-21T08:07:49.802Z,16.27
2019-02-21T08:10:47.213Z,19.53
2019-02-21T08:13:36.024Z,19.90
2019-02-21T08:16:05.552Z,23.73
2019-02-21T08:18:35.043Z,20.50
2019-02-21T08:21:04.736Z,23.30
2019-02-21T08:23:34.279Z,15.13
2019-02-21T08:26:16.288Z,18.17
2019-02-21T08:28:45.835Z,17.17
2019-02-21T08:31:16.965Z,20.43
2019-02-21T08:33:58.578Z,20.35
2019-02-21T08:36:42.982Z,16.50
2019-02-21T08:39:12.551Z,23.73
2019-02-21T08:41:42.083Z,17.83
2019-02-21T08:44:11.619Z,21.30
2019-02-21T08:46:41.080Z,21.70
2019-02-21T08:49:10.620Z,19.20
2019-02-21T08:51:40.217Z,14.40
2019-02-21T08:54:11.527Z,17.25
2019-02-21T08:57:00.045Z,15.60
2019-02-21T08:59:54.566Z,21.40
2019-02-21T09:02:24.163Z,14.65
2019-02-21T09:04:53.792Z,21.07
2019-02-21T09:07:23.404Z,20.40
2019-02-21T09:09:52.986Z,16.63
2019-02-21T09:12:22.533Z,17.33
2019-02-21T09:14:52.088Z,16.77
2019-02-21T09:17:21.654Z,17.33
2019-02-21T09:19:51.250Z,20.15
2019-02-21T09:25:24.177Z,21.10
2019-02-21T09:27:53.752Z,22.43
2019-02-21T09:30:23.347Z,20.73
2019-02-21T09:32:52.922Z,25.10
2019-02-21T09:35:22.431Z,22.53
2019-02-21T09:37:51.947Z,21.83
2019-02-21T09:40:21.440Z,24.23
2019-02-21T09:42:50.944Z,20.20
2019-02-21T09:45:20.495Z,16.30
2019-02-21T09:47:49.992Z,23.50
2019-02-21T09:53:14.178Z,16.33
2019-02-21T09:55:43.709Z,17.85
2019-02-21T09:58:13.187Z,17.87
2019-02-21T10:00:42.738Z,21.43
2019-02-21T10:03:12.258Z,14.65
2019-02-21T10:08:55.508Z,17.50
2019-02-21T10:11:26.618Z,18.67
2019-02-21T10:13:57.775Z,18.33
2019-02-21T10:16:27.274Z,21.00
2019-02-21T10:18:56.776Z,18.97
2019-02-21T10:21:26.316Z,17.20
2019-02-21T10:23:56.738Z,23.23
2019-02-21T10:26:26.322Z,19.00
2019-02-21T10:28:55.817Z,25.23
2019-02-21T10:31:25.475Z,24.77
2019-02-21T10:33:54.998Z,22.30
2019-02-21T10:36:24.584Z,22.85
2019-02-21T10:38:54.131Z,24.35
2019-02-21T10:41:36.001Z,24.53
2019-02-21T10:44:05.597Z,17.70
2019-02-21T10:46:35.154Z,17.03
2019-02-21T10:49:04.737Z,21.00
2019-02-21T10:51:34.321Z,17.53
2019-02-21T10:54:03.928Z,24.57
2019-02-21T10:56:33.487Z,18.57
2019-02-21T10:59:03.052Z,16.87
2019-02-21T11:04:26.685Z,16.67
2019-02-21T11:06:56.213Z,18.70
2019-02-21T11:09:25.699Z,17.67
2019-02-21T11:11:55.225Z,20.08
2019-02-21T11:14:24.780Z,20.27
2019-02-21T11:16:54.274Z,19.10
2019-02-21T11:19:44.660Z,19.80
2019-02-21T11:22:14.170Z,20.73
2019-02-21T11:24:43.770Z,17.80
2019-02-21T11:27:13.380Z,20.37
2019-02-21T11:29:42.913Z,18.50
2019-02-21T11:32:12.453Z,21.85
2019-02-21T11:35:06.330Z,18.53
2019-02-21T11:37:51.716Z,21.30
2019-02-21T11:40:21.217Z,19.07
2019-02-21T11:42:50.747Z,18.37
2019-02-21T11:45:20.391Z,22.70
2019-02-21T11:47:49.932Z,18.77
2019-02-21T11:50:19.512Z,21.53
2019-02-21T11:52:49.105Z,17.80
2019-02-21T11:55:20.191Z,18.97
2019-02-21T11:57:49.728Z,20.75
2019-02-21T12:00:23.497Z,22.57
2019-02-21T12:02:53.057Z,19.95
2019-02-21T12:05:30.581Z,17.15
2019-02-21T12:07:59.615Z,19.10
2019-02-21T12:10:29.146Z,18.30
2019-02-21T12:12:58.628Z,20.47
2019-02-21T12:15:28.146Z,20.32
2019-02-21T12:17:57.672Z,15.40
2019-02-21T12:20:27.242Z,22.67
2019-02-21T12:23:01.922Z,20.57
2019-02-21T12:25:31.419Z,18.10
2019-02-21T12:30:42.348Z,18.20
2019-02-21T12:33:11.865Z,17.73
2019-02-21T12:35:42.979Z,20.50
2019-02-21T12:38:12.559Z,22.23
2019-02-21T12:40:42.064Z,20.63
2019-02-21T12:43:11.562Z,17.30
2019-02-21T12:45:41.062Z,19.30
2019-02-21T12:48:10.635Z,19.70
2019-02-21T12:50:44.196Z,19.57
2019-02-21T12:53:16.669Z,19.77
2019-02-21T12:58:27.835Z,19.67
2019-02-21T13:01:16.666Z,18.77
2019-02-21T13:03:46.297Z,16.77
2019-02-21T13:06:15.881Z,18.50
2019-02-21T13:08:45.314Z,24.07
2019-02-21T13:11:14.796Z,21.43
2019-02-21T13:13:44.344Z,20.12
2019-02-21T13:16:32.900Z,20.70
2019-02-21T13:19:02.425Z,17.00
2019-02-21T13:21:31.906Z,18.23
2019-02-21T13:24:01.807Z,17.77
2019-02-21T13:26:31.341Z,22.40
2019-02-21T13:31:41.840Z,21.30
2019-02-21T13:34:11.340Z,18.20
2019-02-21T13:36:40.853Z,18.93
2019-02-21T13:39:10.439Z,21.47
2019-02-21T13:41:39.991Z,17.73
2019-02-21T13:44:09.796Z,19.42
2019-02-21T13:46:41.216Z,20.88
2019-02-21T13:49:16.673Z,25.95
2019-02-21T13:51:46.212Z,25.43
2019-02-21T13:54:15.717Z,22.37
2019-02-21T13:56:45.220Z,24.53
2019-02-21T13:59:14.874Z,23.83
2019-02-21T14:01:45.991Z,18.35
2019-02-21T14:04:15.531Z,21.30
2019-02-21T14:06:45.083Z,24.63
2019-02-21T14:09:14.717Z,19.57
2019-02-21T14:11:44.219Z,20.90
2019-02-21T14:14:13.752Z,25.87
2019-02-21T14:16:46.672Z,21.40
2019-02-21T14:19:19.678Z,24.03
2019-02-21T14:21:49.151Z,19.90
2019-02-21T14:24:18.635Z,17.17
2019-02-21T14:26:53.999Z,26.20
2019-02-21T14:29:23.519Z,20.23
2019-02-21T14:31:53.043Z,21.07
2019-02-21T14:34:22.635Z,21.80
2019-02-21T14:36:52.116Z,14.40
2019-02-21T14:39:21.615Z,18.77
2019-02-21T14:41:51.102Z,17.60
2019-02-21T14:44:20.613Z,18.80
2019-02-21T14:46:50.426Z,19.10
2019-02-21T14:49:19.944Z,18.85
2019-02-21T14:51:49.461Z,16.63
2019-02-21T14:54:18.966Z,18.85
2019-02-21T14:57:07.720Z,15.13
2019-02-21T14:59:37.244Z,18.07
2019-02-21T15:02:06.735Z,21.90
2019-02-21T15:07:30.127Z,23.10
2019-02-21T15:09:59.671Z,20.17
2019-02-21T15:12:29.208Z,26.93
2019-02-21T15:14:58.729Z,15.37
2019-02-21T15:17:28.267Z,19.80
2019-02-21T15:19:57.791Z,22.07
2019-02-21T15:22:27.392Z,20.65
2019-02-21T15:24:57.269Z,16.17
2019-02-21T15:27:26.759Z,29.43
2019-02-21T15:29:57.880Z,25.60
2019-02-21T15:32:39.255Z,18.07
2019-02-21T15:35:19.427Z,21.53
2019-02-21T15:37:54.716Z,22.10
2019-02-21T15:40:24.248Z,21.27
2019-02-21T15:42:53.752Z,21.93
2019-02-21T15:45:24.362Z,20.82
2019-02-21T15:48:13.603Z,21.83
2019-02-21T15:50:43.125Z,20.57
2019-02-21T15:53:12.732Z,22.30
2019-02-21T15:55:42.308Z,20.33
2019-02-21T15:58:11.860Z,25.17
2019-02-21T16:00:41.484Z,25.40
2019-02-21T16:03:11.060Z,22.40
2019-02-21T16:05:40.666Z,21.53
2019-02-21T16:08:10.555Z,25.82
2019-02-21T16:10:40.588Z,19.80
2019-02-21T16:13:10.886Z,18.32
2019-02-21T16:15:40.630Z,19.25
2019-02-21T16:18:10.664Z,22.52
2019-02-21T16:20:40.768Z,21.40
2019-02-21T16:23:11.474Z,15.58
2019-02-21T16:26:01.118Z,17.00
2019-02-21T16:28:30.595Z,21.53
2019-02-21T16:31:19.169Z,20.70
2019-02-21T16:33:48.708Z,21.47
2019-02-21T16:36:18.236Z,20.27
2019-02-21T16:38:47.769Z,20.70
2019-02-21T16:41:17.283Z,21.53
2019-02-21T16:43:46.775Z,26.90
2019-02-21T16:46:16.352Z,24.83
2019-02-21T16:48:45.861Z,25.33
2019-02-21T16:51:15.420Z,20.73
2019-02-21T16:53:44.919Z,24.30
2019-02-21T16:56:14.504Z,25.97
2019-02-21T16:58:43.990Z,27.47
2019-02-21T17:01:32.595Z,26.03
2019-02-21T17:04:02.637Z,28.67
2019-02-21T17:06:32.169Z,28.83
2019-02-21T17:09:01.716Z,31.23
2019-02-21T17:11:32.847Z,27.33
2019-02-21T17:14:02.499Z,33.57
2019-02-21T17:16:32.090Z,33.23
2019-02-21T17:19:01.672Z,31.62
2019-02-21T17:21:31.233Z,36.23
2019-02-21T17:24:00.725Z,28.70
2019-02-21T17:26:31.898Z,35.00
2019-02-21T17:29:01.473Z,27.37
2019-02-21T17:31:31.075Z,29.57
2019-02-21T17:34:00.729Z,33.13
2019-02-21T17:36:32.663Z,30.50
2019-02-21T17:39:07.757Z,29.77
2019-02-21T17:44:33.542Z,38.63
2019-02-21T17:49:44.924Z,34.87
2019-02-21T17:52:14.523Z,37.43
2019-02-21T17:54:45.168Z,36.15
2019-02-21T17:57:16.338Z,35.10
2019-02-21T17:59:45.942Z,39.63
2019-02-21T18:02:15.809Z,38.17
2019-02-21T18:04:46.258Z,38.25
2019-02-21T18:07:16.201Z,39.27
2019-02-21T18:09:46.271Z,35.38
2019-02-21T18:12:16.257Z,33.33
2019-02-21T18:14:46.329Z,33.23
2019-02-21T18:17:16.435Z,31.40
2019-02-21T18:20:06.055Z,35.00
2019-02-21T18:22:35.558Z,46.50
2019-02-21T18:25:07.379Z,31.87
2019-02-21T18:27:36.858Z,32.20
2019-02-21T18:30:06.730Z,33.23
2019-02-21T18:32:36.309Z,31.83
2019-02-21T18:35:06.494Z,33.13
2019-02-21T18:37:46.680Z,33.57
2019-02-21T18:40:33.428Z,31.85
2019-02-21T18:43:02.986Z,34.98
2019-02-21T18:45:32.681Z,34.30
2019-02-21T18:51:04.492Z,33.63
2019-02-21T18:53:34.036Z,31.90
2019-02-21T18:56:15.720Z,36.73
2019-02-21T18:58:45.229Z,30.67
2019-02-21T19:01:14.898Z,35.00
2019-02-21T19:03:44.486Z,31.70
2019-02-21T19:06:15.679Z,32.37
2019-02-21T19:08:45.255Z,34.40
2019-02-21T19:11:14.846Z,29.83
2019-02-21T19:13:44.382Z,35.67
2019-02-21T19:16:14.103Z,33.40
2019-02-21T19:18:43.804Z,35.47
2019-02-21T19:21:13.390Z,39.57
2019-02-21T19:23:42.917Z,30.43
2019-02-21T19:26:12.517Z,25.80
2019-02-21T19:29:01.342Z,27.17
2019-02-21T19:31:30.982Z,35.43
2019-02-21T19:34:00.544Z,28.57
2019-02-21T19:39:24.603Z,30.67
2019-02-21T19:41:54.148Z,32.50
2019-02-21T19:44:23.746Z,31.37
2019-02-21T19:46:53.300Z,29.03
2019-02-21T19:49:22.857Z,24.85
2019-02-21T19:51:52.453Z,31.97
2019-02-21T19:54:22.158Z,27.80
2019-02-21T19:56:51.776Z,30.17
2019-02-21T19:59:40.700Z,31.00
2019-02-21T20:02:10.353Z,30.85
2019-02-21T20:04:39.904Z,25.53
2019-02-21T20:07:09.501Z,32.17
2019-02-21T20:09:39.034Z,31.87
2019-02-21T20:12:08.568Z,30.70
2019-02-21T20:14:38.133Z,30.70
2019-02-21T20:17:20.066Z,27.67
2019-02-21T20:19:49.614Z,30.97
2019-02-21T20:22:19.234Z,29.30
2019-02-21T20:24:48.725Z,30.23
2019-02-21T20:27:18.299Z,28.47
2019-02-21T20:29:47.839Z,28.93
2019-02-21T20:32:17.503Z,30.63
2019-02-21T20:34:47.773Z,31.63
2019-02-21T20:37:36.389Z,30.57
2019-02-21T20:40:06.454Z,30.37
2019-02-21T20:42:36.034Z,29.13
2019-02-21T20:48:26.436Z,33.75
2019-02-21T20:53:57.035Z,31.17
2019-02-21T20:56:26.747Z,29.50
2019-02-21T20:58:56.225Z,28.83
2019-02-21T21:01:25.780Z,29.10
2019-02-21T21:06:45.470Z,27.80
2019-02-21T21:09:15.059Z,28.20
2019-02-21T21:11:44.780Z,26.00
2019-02-21T21:14:14.331Z,29.90
2019-02-21T21:16:44.023Z,22.60
2019-02-21T21:19:13.716Z,30.10
2019-02-21T21:21:43.326Z,26.45
2019-02-21T21:24:12.814Z,29.40
2019-02-21T21:26:42.346Z,27.25
2019-02-21T21:29:11.822Z,31.37
2019-02-21T21:31:41.453Z,27.55
2019-02-21T21:34:10.971Z,28.93
2019-02-21T21:36:40.618Z,23.23
2019-02-21T21:39:11.099Z,28.30
2019-02-21T21:41:40.870Z,30.13
2019-02-21T21:44:10.377Z,30.23
2019-02-21T21:46:39.865Z,23.83
2019-02-21T21:49:09.346Z,30.93
2019-02-21T21:51:38.967Z,30.43
2019-02-21T21:54:08.449Z,31.05
2019-02-21T21:56:38.136Z,27.23
2019-02-21T21:59:07.757Z,30.37
2019-02-21T22:01:37.286Z,28.12
2019-02-21T22:04:06.786Z,32.40
2019-02-21T22:06:36.288Z,32.47
2019-02-21T22:09:25.799Z,31.17
2019-02-21T22:11:55.282Z,23.93
2019-02-21T22:14:24.822Z,27.10
2019-02-21T22:16:54.322Z,26.20
2019-02-21T22:19:23.803Z,27.90
2019-02-21T22:21:53.303Z,27.90
2019-02-21T22:24:34.979Z,26.50
2019-02-21T22:27:04.536Z,27.70
2019-02-21T22:29:34.104Z,28.97
2019-02-21T22:32:03.786Z,28.92
2019-02-21T22:34:33.275Z,24.87
2019-02-21T22:37:02.783Z,26.37
2019-02-21T22:39:32.267Z,28.73
2019-02-21T22:42:01.765Z,26.90
2019-02-21T22:44:31.232Z,30.77
2019-02-21T22:47:00.753Z,29.43
2019-02-21T22:49:30.273Z,28.37
2019-02-21T22:51:59.771Z,27.07
2019-02-21T22:54:48.375Z,27.27
2019-02-21T22:57:17.889Z,28.83
2019-02-21T22:59:47.401Z,19.87
2019-02-21T23:02:16.980Z,27.50
2019-02-21T23:05:18.384Z,28.37
2019-02-21T23:08:26.456Z,24.57
2019-02-21T23:10:55.934Z,29.20
2019-02-21T23:16:19.979Z,28.63
2019-02-21T23:22:11.295Z,21.87
2019-02-21T23:24:40.817Z,31.40
2019-02-21T23:27:10.342Z,25.37
2019-02-21T23:29:39.829Z,26.77
2019-02-21T23:32:09.348Z,26.60
2019-02-21T23:37:31.365Z,26.13
2019-02-21T23:40:00.877Z,25.93
2019-02-21T23:42:32.019Z,23.37
2019-02-21T23:45:20.613Z,24.90
2019-02-21T23:47:50.211Z,29.33
2019-02-21T23:50:19.696Z,26.30
2019-02-21T23:52:49.201Z,24.50
2019-02-21T23:55:18.725Z,32.23
2019-02-21T23:57:48.275Z,28.17
